createdAt,value
2019-02-23T00:02:17.353Z,57.12
2019-02-23T00:07:26.542Z,51.27
2019-02-23T00:12:35.718Z,167.76
2019-02-23T00:17:44.841Z,94.07
2019-02-23T00:22:54.044Z,65.94
2019-02-23T00:28:03.124Z,55.96
2019-02-23T00:33:12.565Z,52.74
2019-02-23T00:38:21.604Z,127.89
2019-02-23T00:43:30.717Z,54.35
2019-02-23T00:48:39.800Z,57.58
2019-02-23T00:53:49.018Z,56.27
2019-02-23T00:58:58.140Z,60.05
2019-02-23T01:04:07.255Z,97.62
2019-02-23T01:09:16.298Z,64.49
2019-02-23T01:14:25.513Z,65.73
2019-02-23T01:19:34.561Z,52.95
2019-02-23T01:24:43.807Z,57.50
2019-02-23T01:29:52.879Z,50.14
2019-02-23T01:35:02.002Z,228.48
2019-02-23T01:40:11.086Z,58.15
2019-02-23T01:45:20.218Z,56.42
2019-02-23T01:50:29.274Z,175.79
2019-02-23T01:55:38.478Z,67.78
2019-02-23T02:00:47.549Z,57.38
2019-02-23T02:05:56.663Z,49.32
2019-02-23T02:11:05.772Z,101.15
2019-02-23T02:16:14.882Z,70.80
2019-02-23T02:21:24.202Z,64.57
2019-02-23T02:26:33.321Z,127.59
2019-02-23T02:31:42.393Z,59.29
2019-02-23T02:36:51.626Z,179.43
2019-02-23T02:42:00.684Z,53.37
2019-02-23T02:47:10.015Z,180.92
2019-02-23T02:52:19.089Z,133.34
2019-02-23T02:57:28.221Z,117.88
2019-02-23T03:02:37.445Z,65.29
2019-02-23T03:07:46.587Z,62.63
2019-02-23T03:12:55.700Z,69.59
2019-02-23T03:18:04.808Z,58.68
2019-02-23T03:23:13.894Z,64.13
2019-02-23T03:28:23.079Z,56.62
2019-02-23T03:33:32.165Z,60.20
2019-02-23T03:38:41.282Z,88.56
2019-02-23T03:43:50.352Z,73.56
2019-02-23T03:48:59.613Z,57.87
2019-02-23T03:54:08.653Z,64.74
2019-02-23T03:59:17.777Z,92.75
2019-02-23T04:04:26.836Z,77.39
2019-02-23T04:09:36.068Z,65.94
2019-02-23T04:14:45.103Z,72.08
2019-02-23T04:19:54.325Z,64.14
2019-02-23T04:25:03.434Z,63.46
2019-02-23T04:30:12.534Z,67.83
2019-02-23T04:35:21.613Z,45.58
2019-02-23T04:40:30.693Z,55.09
2019-02-23T04:45:39.731Z,60.44
2019-02-23T04:50:48.881Z,85.91
2019-02-23T04:55:57.927Z,110.28
2019-02-23T05:01:07.068Z,116.26
2019-02-23T05:06:16.129Z,107.83
2019-02-23T05:11:25.304Z,66.91
2019-02-23T05:16:34.361Z,54.56
2019-02-23T05:21:43.492Z,49.30
2019-02-23T05:26:52.546Z,49.63
2019-02-23T05:32:01.719Z,50.39
2019-02-23T05:37:10.801Z,53.58
2019-02-23T05:42:20.010Z,86.05
2019-02-23T05:47:29.179Z,96.42
2019-02-23T05:52:38.392Z,64.74
2019-02-23T05:57:47.460Z,52.90
2019-02-23T06:02:56.738Z,44.29
2019-02-23T06:08:05.804Z,90.32
2019-02-23T06:13:14.909Z,68.15
2019-02-23T06:18:23.997Z,56.08
2019-02-23T06:23:33.309Z,56.65
2019-02-23T06:28:42.341Z,53.28
2019-02-23T06:33:51.481Z,52.67
2019-02-23T06:39:00.514Z,57.25
2019-02-23T06:44:09.648Z,57.69
2019-02-23T06:49:18.696Z,56.57
2019-02-23T06:54:27.973Z,52.86
2019-02-23T06:59:37.079Z,95.55
2019-02-23T07:04:46.379Z,105.46
2019-02-23T07:09:55.460Z,69.73
2019-02-23T07:15:04.622Z,100.48
2019-02-23T07:20:13.722Z,107.67
2019-02-23T07:25:22.972Z,68.79
2019-02-23T07:30:32.068Z,54.51
2019-02-23T07:35:41.209Z,56.94
2019-02-23T07:40:50.283Z,95.39
2019-02-23T07:45:59.461Z,69.06
2019-02-23T07:51:08.580Z,57.62
2019-02-23T07:56:17.823Z,54.07
2019-02-23T08:01:26.881Z,55.33
2019-02-23T08:06:35.998Z,54.78
2019-02-23T08:11:45.060Z,91.38
2019-02-23T08:16:54.305Z,74.86
2019-02-23T08:22:03.344Z,64.56
2019-02-23T08:27:12.492Z,62.15
2019-02-23T08:32:21.570Z,93.84
2019-02-23T08:37:30.709Z,78.70
2019-02-23T08:42:39.833Z,60.56
2019-02-23T08:47:49.102Z,59.05
2019-02-23T08:52:58.334Z,118.00
2019-02-23T08:58:07.462Z,136.22
2019-02-23T09:03:16.617Z,50.25
2019-02-23T09:08:25.805Z,44.43
2019-02-23T09:13:34.878Z,47.90
2019-02-23T09:18:44.160Z,52.49
2019-02-23T09:23:53.299Z,104.27
2019-02-23T09:29:02.393Z,65.92
2019-02-23T09:34:11.447Z,54.90
2019-02-23T09:39:20.604Z,56.55
2019-02-23T09:44:29.685Z,146.58
2019-02-23T09:49:38.970Z,53.75
2019-02-23T09:54:48.110Z,51.66
2019-02-23T09:59:57.256Z,105.31
2019-02-23T10:05:06.465Z,117.86
2019-02-23T10:10:15.999Z,82.04
2019-02-23T10:15:25.001Z,49.92
2019-02-23T10:20:34.264Z,53.75
2019-02-23T10:25:43.395Z,199.51
2019-02-23T10:30:52.574Z,55.31
2019-02-23T10:36:01.787Z,54.16
2019-02-23T10:41:11.009Z,125.75
2019-02-23T10:46:20.074Z,53.43
2019-02-23T10:51:29.223Z,84.09
2019-02-23T10:56:38.326Z,264.21
2019-02-23T11:01:47.539Z,249.00
2019-02-23T11:06:56.605Z,78.67
2019-02-23T11:12:06.156Z,224.54
2019-02-23T11:17:15.228Z,245.23
2019-02-23T11:22:24.475Z,244.92
2019-02-23T11:27:33.536Z,238.07
2019-02-23T11:32:42.753Z,238.30
2019-02-23T11:37:51.820Z,237.66
2019-02-23T11:43:01.018Z,255.81
2019-02-23T11:48:10.270Z,289.86
2019-02-23T11:53:19.489Z,77.82
2019-02-23T11:58:28.630Z,258.78
2019-02-23T12:03:37.895Z,77.06
2019-02-23T12:08:47.015Z,253.14
2019-02-23T12:13:56.261Z,274.48
2019-02-23T12:19:05.408Z,276.18
2019-02-23T12:24:14.652Z,259.68
2019-02-23T12:29:23.802Z,254.42
2019-02-23T12:34:32.883Z,264.22
2019-02-23T12:39:41.978Z,253.69
2019-02-23T12:44:51.122Z,244.62
2019-02-23T12:50:00.303Z,255.21
2019-02-23T12:55:09.478Z,276.59
2019-02-23T13:00:18.742Z,276.70
2019-02-23T13:05:27.969Z,291.80
2019-02-23T13:10:37.034Z,307.59
2019-02-23T13:15:46.320Z,296.15
2019-02-23T13:20:55.409Z,290.68
2019-02-23T13:26:04.555Z,270.28
2019-02-23T13:31:14.957Z,294.72
2019-02-23T13:36:22.313Z,298.51
2019-02-23T13:41:31.425Z,291.94
2019-02-23T13:46:40.563Z,287.58
2019-02-23T13:51:49.654Z,89.35
2019-02-23T13:56:58.929Z,270.12
2019-02-23T14:02:08.012Z,283.60
2019-02-23T14:07:17.173Z,88.04
2019-02-23T14:12:26.274Z,255.00
2019-02-23T14:17:35.489Z,280.92
2019-02-23T14:22:44.710Z,83.84
2019-02-23T14:27:53.937Z,93.12
2019-02-23T14:33:03.018Z,313.73
2019-02-23T14:38:12.282Z,318.21
2019-02-23T14:43:21.304Z,306.45
2019-02-23T14:48:30.548Z,84.01
2019-02-23T14:53:39.632Z,277.93
2019-02-23T14:58:48.796Z,328.83
2019-02-23T15:03:57.947Z,405.06
2019-02-23T15:09:07.092Z,368.10
2019-02-23T15:14:16.302Z,355.38
2019-02-23T15:19:25.596Z,38.65
2019-02-23T15:24:34.721Z,420.49
2019-02-23T15:29:44.150Z,271.69
2019-02-23T15:34:53.073Z,398.32
2019-02-23T15:40:02.301Z,47.96
2019-02-23T15:45:11.350Z,421.79
2019-02-23T15:50:20.640Z,437.32
2019-02-23T15:55:29.968Z,434.08
2019-02-23T16:00:38.493Z,416.98
2019-02-23T16:05:47.046Z,411.36
2019-02-23T16:10:56.198Z,415.88
2019-02-23T16:16:05.318Z,266.82
2019-02-23T16:21:14.545Z,397.45
2019-02-23T16:26:23.696Z,411.52
2019-02-23T16:31:32.884Z,412.70
2019-02-23T16:36:41.947Z,238.66
2019-02-23T16:41:51.141Z,37.85
2019-02-23T16:47:00.380Z,352.05
2019-02-23T16:52:09.505Z,385.67
2019-02-23T16:57:18.604Z,386.10
2019-02-23T17:02:27.826Z,395.35
2019-02-23T17:07:36.946Z,374.96
2019-02-23T17:12:46.218Z,382.05
2019-02-23T17:17:55.288Z,93.22
2019-02-23T17:23:04.478Z,95.06
2019-02-23T17:28:13.571Z,311.00
2019-02-23T17:33:22.675Z,337.05
2019-02-23T17:38:31.732Z,85.85
2019-02-23T17:43:41.089Z,85.87
2019-02-23T17:48:50.220Z,358.13
2019-02-23T17:53:59.330Z,85.23
2019-02-23T17:59:08.430Z,339.56
2019-02-23T18:04:17.708Z,346.97
2019-02-23T18:09:26.788Z,79.66
2019-02-23T18:14:36.193Z,88.86
2019-02-23T18:19:45.254Z,323.49
2019-02-23T18:24:54.470Z,85.42
2019-02-23T18:30:10.653Z,291.51
2019-02-23T18:35:12.475Z,329.60
2019-02-23T18:40:21.567Z,360.44
2019-02-23T18:45:30.756Z,83.48
2019-02-23T18:50:39.854Z,82.77
2019-02-23T18:55:48.969Z,261.43
2019-02-23T19:00:58.085Z,295.75
2019-02-23T19:06:07.202Z,80.70
2019-02-23T19:11:16.308Z,243.92
2019-02-23T19:16:25.587Z,291.81
2019-02-23T19:21:34.675Z,337.33
2019-02-23T19:26:43.825Z,92.41
2019-02-23T19:31:52.897Z,238.73
2019-02-23T19:37:02.166Z,126.04
2019-02-23T19:42:11.310Z,232.06
2019-02-23T19:47:20.533Z,276.69
2019-02-23T19:52:29.635Z,148.31
2019-02-23T19:57:38.753Z,256.57
2019-02-23T20:02:47.901Z,279.82
2019-02-23T20:07:56.999Z,273.05
2019-02-23T20:13:06.164Z,247.85
2019-02-23T20:18:15.334Z,59.06
2019-02-23T20:23:24.846Z,56.26
2019-02-23T20:28:33.906Z,128.93
2019-02-23T20:33:43.060Z,133.30
2019-02-23T20:38:52.213Z,76.25
2019-02-23T20:44:01.264Z,59.94
2019-02-23T20:49:10.558Z,182.88
2019-02-23T20:54:19.630Z,54.42
2019-02-23T20:59:28.793Z,241.03
2019-02-23T21:04:37.930Z,119.12
2019-02-23T21:09:47.059Z,82.31
2019-02-23T21:14:56.306Z,60.11
2019-02-23T21:20:05.436Z,60.04
2019-02-23T21:25:14.540Z,232.34
2019-02-23T21:30:23.829Z,59.55
2019-02-23T21:35:32.898Z,62.89
2019-02-23T21:40:42.088Z,69.77
2019-02-23T21:45:51.169Z,50.01
2019-02-23T21:51:00.463Z,61.12
2019-02-23T21:56:09.887Z,47.54
2019-02-23T22:01:19.021Z,211.91
2019-02-23T22:06:28.605Z,61.20
2019-02-23T22:11:37.813Z,226.80
2019-02-23T22:16:46.853Z,203.57
2019-02-23T22:21:56.085Z,66.70
2019-02-23T22:27:05.236Z,59.22
2019-02-23T22:32:14.394Z,58.54
2019-02-23T22:37:23.471Z,57.33
2019-02-23T22:42:32.759Z,58.78
2019-02-23T22:47:41.801Z,54.59
2019-02-23T22:52:50.979Z,64.52
2019-02-23T22:58:00.032Z,62.23
2019-02-23T23:03:09.148Z,52.61
2019-02-23T23:08:18.241Z,119.14
2019-02-23T23:13:27.505Z,86.82
2019-02-23T23:18:36.611Z,120.85
2019-02-23T23:23:45.767Z,123.72
2019-02-23T23:28:54.845Z,93.74
2019-02-23T23:34:04.204Z,77.99
2019-02-23T23:39:13.438Z,68.49
2019-02-23T23:44:22.681Z,62.57
2019-02-23T23:49:31.754Z,69.34
2019-02-23T23:54:40.959Z,62.67
2019-02-23T23:59:50.217Z,57.24
